Data for 05/19/2014

Time Sea-Level Adjusted Pressure Absolute Pressure Temperature Relative Humidity Dew Point   
(mb) (inHg) (mb) (inHg) (C) (F) (%) (C) (F)
00:05 1012 29.88 841 24.83 4.9 40.7 83 2.3 36.1
00:10 1012 29.88 841 24.83 4.9 40.8 83 2.3 36.1
00:15 1012 29.88 841 24.83 4.9 40.9 83 2.3 36.1
00:20 1012 29.88 841 24.83 4.9 40.8 83 2.3 36.1
00:25 1012 29.88 841 24.83 4.9 40.8 83 2.2 36
00:30 1012 29.88 841 24.83 4.9 40.9 83 2.3 36.2
00:35 1012 29.88 841 24.83 4.7 40.4 85 2.4 36.3
00:40 1012 29.88 841 24.83 4.7 40.4 84 2.2 35.9
00:45 1012 29.88 841 24.83 5 41 83 2.3 36.2
00:50 1012 29.88 841 24.83 4.8 40.7 84 2.3 36.2
00:55 1012 29.88 841 24.83 4.5 40.1 85 2.3 36.1
01:00 1012 29.88 841 24.83 4.2 39.5 87 2.2 35.9
01:05 1012 29.88 841 24.83 4.1 39.4 86 2 35.7
01:10 1012 29.88 841 24.83 4.6 40.3 83 2 35.6
01:15 1012 29.88 841 24.83 4.6 40.3 84 2.2 36
01:20 1012 29.88 841 24.83 4.4 40 86 2.4 36.2
01:25 1012 29.88 841 24.83 4.1 39.4 87 2.1 35.8
01:30 1012 29.88 841 24.83 4.2 39.5 86 2 35.5
01:35 1012 29.88 841 24.83 4.6 40.2 84 2 35.7
01:40 1012 29.88 841 24.83 4.5 40.2 84 2.1 35.8
01:45 1012 29.88 841 24.83 4.7 40.5 82 1.9 35.4
01:50 1012 29.88 841 24.83 4.9 40.9 81 1.9 35.5
01:55 1012 29.88 841 24.83 5 40.9 82 2.1 35.8
02:00 1012 29.88 841 24.83 4.9 40.7 82 2 35.6
02:05 1012 29.88 841 24.83 4.8 40.6 82 1.9 35.4
02:10 1012 29.88 841 24.83 4.8 40.6 81 1.9 35.4
02:15 1012 29.88 841 24.83 4.7 40.5 82 1.9 35.5
02:20 1012 29.88 841 24.83 4.8 40.6 82 1.9 35.5
02:25 1012 29.88 842 24.86 4.8 40.6 84 2.2 36
02:30 1012 29.88 842 24.86 4.8 40.7 82 2 35.6
02:35 1012 29.88 842 24.86 5.1 41.3 81 2.1 35.8
02:40 1012 29.88 842 24.86 5.3 41.5 81 2.3 36.1
02:45 1012 29.88 842 24.86 5.4 41.6 79 2 35.6
02:50 1012 29.88 842 24.86 5.6 42.1 77 2 35.5
02:55 1012 29.88 842 24.86 5.9 42.6 76 2 35.5
03:00 1012 29.88 842 24.86 6 42.9 76 2.1 35.9
03:05 1013 29.91 842 24.86 6 42.8 77 2.2 36
03:10 1013 29.91 842 24.86 6 42.8 76 2.2 35.9
03:15 1013 29.91 842 24.86 6 42.9 76 2.1 35.7
03:20 1013 29.91 842 24.86 6.1 43 76 2.2 36
03:25 1013 29.91 842 24.86 6 42.8 77 2.3 36.1
03:30 1013 29.91 842 24.86 5.8 42.4 78 2.3 36.1
03:35 1013 29.91 842 24.86 5.7 42.3 78 2.2 36
03:40 1013 29.91 842 24.86 5.8 42.4 77 2.1 35.8
03:45 1013 29.91 842 24.86 5.8 42.5 77 2.1 35.8
03:50 1013 29.91 842 24.86 6 42.7 78 2.4 36.2
03:55 1013 29.91 842 24.86 5.9 42.6 80 2.7 36.9
04:00 1013 29.91 842 24.86 5.5 42 80 2.4 36.4
04:05 1013 29.91 842 24.86 5.4 41.8 82 2.6 36.6
04:10 1013 29.91 842 24.86 5.3 41.6 81 2.3 36.1
04:15 1013 29.91 842 24.86 5.3 41.5 82 2.4 36.3
04:20 1013 29.91 842 24.86 5.2 41.3 82 2.4 36.4
04:25 1013 29.91 842 24.86 5.2 41.3 81 2.1 35.9
04:30 1013 29.91 842 24.86 5.2 41.4 82 2.4 36.3
04:35 1013 29.91 842 24.86 5.2 41.4 82 2.3 36.2
04:40 1013 29.91 842 24.86 5.1 41.3 82 2.2 36
04:45 1013 29.91 842 24.86 5.2 41.3 81 2.2 35.9
04:50 1013 29.91 842 24.86 5.2 41.4 79 1.9 35.4
04:55 1013 29.91 842 24.86 5.1 41.3 79 1.9 35.4
05:00 1013 29.91 842 24.86 5.1 41.2 79 1.8 35.3
05:05 1013 29.91 842 24.86 5.1 41.2 79 1.8 35.2
05:10 1013 29.91 842 24.86 5.2 41.3 78 1.6 34.9
05:15 1013 29.91 843 24.89 5.3 41.5 80 2.2 35.9
05:20 1013 29.91 843 24.89 5.5 41.9 82 2.7 36.8
05:25 1013 29.91 843 24.89 5.4 41.8 78 1.9 35.4
05:30 1013 29.91 843 24.89 5.4 41.8 77 1.7 35.1
05:35 1013 29.91 843 24.89 5.5 41.9 77 1.8 35.2
05:40 1014 29.94 843 24.89 5.6 42.2 78 2 35.7
05:45 1014 29.94 843 24.89 5.8 42.4 76 1.9 35.5
05:50 1014 29.94 843 24.89 5.9 42.6 75 1.8 35.2
05:55 1014 29.94 843 24.89 6 42.9 76 2.1 35.7
06:00 1014 29.94 843 24.89 6.2 43.2 76 2.3 36.2
06:05 1014 29.94 843 24.89 6.4 43.4 74 2.1 35.8
06:10 1014 29.94 843 24.89 6.6 43.8 72 2 35.6
06:15 1014 29.94 843 24.89 6.8 44.3 72 2.1 35.8
06:20 1014 29.94 843 24.89 7 44.5 70 2 35.5
06:25 1014 29.94 843 24.89 7.1 44.8 70 2 35.6
06:30 1014 29.94 843 24.89 7.2 45 70 2.1 35.8
06:35 1014 29.94 843 24.89 7.6 45.6 68 2 35.6
06:40 1014 29.94 843 24.89 8.2 46.7 66 2.3 36.1
06:45 1014 29.94 843 24.89 8.2 46.7 68 2.7 36.9
06:50 1014 29.94 843 24.89 7.8 46 70 2.6 36.7
06:55 1014 29.94 843 24.89 7.7 45.9 70 2.7 36.8
07:00 1014 29.94 843 24.89 8.4 47.1 66 2.4 36.3
07:05 1014 29.94 843 24.89 9.2 48.6 64 2.8 37
07:10 1014 29.94 843 24.89 9.6 49.3 62 2.8 37
07:15 1014 29.94 843 24.89 9.5 49.1 60 2.1 35.9
07:20 1014 29.94 843 24.89 9.2 48.6 60 2 35.6
07:25 1014 29.94 843 24.89 9 48.2 60 1.6 34.8
07:30 1014 29.94 843 24.89 9.5 49.1 58 1.8 35.3
07:35 1014 29.94 843 24.89 9.5 49 60 2.1 35.8
07:40 1014 29.94 843 24.89 9 48.3 60 1.8 35.3
07:45 1014 29.94 843 24.89 8.8 47.8 62 2 35.6
07:50 1014 29.94 843 24.89 8.8 47.8 64 2.3 36.1
07:55 1014 29.94 843 24.89 9.2 48.6 61 2.2 35.9
08:00 1014 29.94 843 24.89 9.6 49.3 61 2.5 36.4
08:05 1014 29.94 843 24.89 9.7 49.4 60 2.3 36.1
08:10 1014 29.94 843 24.89 9.7 49.4 61 2.5 36.5
08:15 1014 29.94 843 24.89 9.4 48.8 61 2.3 36.2
08:20 1014 29.94 843 24.89 9.2 48.6 61 2.1 35.7
08:25 1014 29.94 843 24.89 9.7 49.5 58 1.9 35.4
08:30 1014 29.94 843 24.89 9.6 49.3 59 2.1 35.8
08:35 1014 29.94 844 24.92 9.4 48.9 60 2.2 35.9
08:40 1014 29.94 844 24.92 9.9 49.9 57 2 35.6
08:45 1014 29.94 844 24.92 10.5 50.9 55 2 35.6
08:50 1014 29.94 844 24.92 10.7 51.2 53 1.6 34.9
08:55 1014 29.94 844 24.92 10.9 51.7 54 1.9 35.4
09:00 1014 29.94 843 24.89 11 51.8 53 1.9 35.4
09:05 1014 29.94 843 24.89 11.4 52.5 52 1.8 35.3
09:10 1014 29.94 843 24.89 11.7 53.1 50 1.7 35
09:15 1014 29.94 844 24.92 10.8 51.5 54 1.9 35.5
09:20 1014 29.94 844 24.92 10.4 50.6 55 1.9 35.4
09:25 1014 29.94 844 24.92 10.4 50.6 55 1.8 35.2
09:30 1014 29.94 844 24.92 10 50.1 55 1.5 34.7
09:35 1014 29.94 844 24.92 9.9 49.8 56 1.5 34.8
09:40 1014 29.94 844 24.92 9.8 49.6 51 0.2 32.4
09:45 1014 29.94 844 24.92 10 49.9 48 -0.5 31
09:50 1014 29.94 844 24.92 11.1 52 46 -0.1 31.9
09:55 1014 29.94 844 24.92 11.7 53 45 0.2 32.4
10:00 1014 29.94 844 24.92 12 53.6 45 0.5 32.8
10:05 1014 29.94 844 24.92 11.7 53 43 -0.5 31.2
10:10 1015 29.97 844 24.92 11.7 53 43 -0.6 31
10:15 1014 29.94 844 24.92 12.3 54.1 42 -0.2 31.7
10:20 1014 29.94 844 24.92 12.5 54.5 42 -0.2 31.7
10:25 1014 29.94 844 24.92 12.4 54.4 41 -0.3 31.4
10:30 1014 29.94 844 24.92 12.7 54.9 40 -0.6 30.8
10:35 1015 29.97 844 24.92 12.7 54.8 39 -0.9 30.3
10:40 1015 29.97 844 24.92 12.3 54.1 40 -0.9 30.5
10:45 1015 29.97 844 24.92 12.6 54.6 37 -1.5 29.2
10:50 1015 29.97 844 24.92 12.4 54.4 39 -1 30.2
10:55 1015 29.97 844 24.92 12.7 54.8 40 -0.4 31.3
11:00 1015 29.97 844 24.92 13.5 56.2 36 -1.1 29.9
11:05 1015 29.97 844 24.92 13.9 57.1 37 -0.5 31.2
11:10 1015 29.97 844 24.92 13.7 56.7 35 -1.4 29.4
11:15 1015 29.97 844 24.92 14 57.2 35 -1 30.2
11:20 1015 29.97 844 24.92 13.8 56.9 37 -0.4 31.3
11:25 1015 29.97 844 24.92 13.9 57 34 -1.5 29.4
11:30 1015 29.97 844 24.92 14.4 57.9 35 -1 30.3
11:35 1015 29.97 844 24.92 14.7 58.4 34 -1.1 30
11:40 1015 29.97 844 24.92 14.3 57.7 36 -0.4 31.3
11:45 1015 29.97 844 24.92 14.7 58.5 34 -0.7 30.7
11:50 1015 29.97 844 24.92 14.5 58.1 36 -0.2 31.6
11:55 1014 29.94 844 24.92 14.2 57.6 34 -1.4 29.5
12:00 1014 29.94 844 24.92 14.5 58.1 35 -0.7 30.8
12:05 1014 29.94 844 24.92 15 59.1 34 -0.6 30.8
12:10 1014 29.94 844 24.92 15.2 59.4 34 -0.4 31.2
12:15 1014 29.94 844 24.92 14.5 58 35 -0.8 30.6
12:20 1014 29.94 843 24.89 14.1 57.3 35 -1.3 29.7
12:25 1014 29.94 844 24.92 15.3 59.5 33 -0.7 30.8
12:30 1014 29.94 844 24.92 15.7 60.3 32 -0.9 30.4
12:35 1014 29.94 844 24.92 15.6 60.1 32 -0.7 30.7
12:40 1014 29.94 844 24.92 15.3 59.5 33 -0.7 30.8
12:45 1014 29.94 844 24.92 15 59 35 -0.3 31.4
12:50 1014 29.94 844 24.92 14.6 58.3 34 -1.1 30
12:55 1014 29.94 844 24.92 15 59 33 -1.2 29.8
13:00 1014 29.94 844 24.92 15.5 59.9 32 -1.1 29.9
13:05 1014 29.94 844 24.92 15.2 59.4 33 -0.9 30.5
13:10 1014 29.94 844 24.92 14.9 58.8 36 0 32
13:15 1014 29.94 844 24.92 15 58.9 34 -0.8 30.5
13:20 1014 29.94 844 24.92 15.3 59.5 30 -2 28.4
13:25 1014 29.94 844 24.92 15.4 59.7 30 -2.2 28
13:30 1014 29.94 844 24.92 15.6 60 30 -1.9 28.5
13:35 1014 29.94 844 24.92 15.9 60.6 30 -1.7 28.9
13:40 1014 29.94 844 24.92 16 60.7 31 -1.1 30.1
13:45 1014 29.94 843 24.89 15.2 59.4 32 -1.4 29.5
13:50 1014 29.94 843 24.89 15.6 60 32 -0.9 30.3
13:55 1014 29.94 843 24.89 14.9 58.8 34 -0.7 30.8
14:00 1014 29.94 843 24.89 14.8 58.6 32 -1.5 29.3
14:05 1014 29.94 843 24.89 15.3 59.5 31 -1.5 29.3
14:10 1014 29.94 843 24.89 15.7 60.2 32 -1 30.1
14:15 1014 29.94 843 24.89 15.5 59.9 32 -1 30.2
14:20 1014 29.94 843 24.89 15.4 59.8 33 -0.9 30.5
14:25 1014 29.94 843 24.89 15.8 60.5 31 -1.1 29.9
14:30 1014 29.94 843 24.89 15.6 60 29 -2.1 28.2
14:35 1014 29.94 843 24.89 16.4 61.5 29 -1.5 29.4
14:40 1014 29.94 843 24.89 16.3 61.3 28 -2 28.5
14:45 1014 29.94 843 24.89 15.9 60.7 28 -2.2 28
14:50 1014 29.94 843 24.89 16.5 61.8 29 -1.3 29.6
14:55 1014 29.94 843 24.89 16.4 61.5 29 -1.6 29.2
15:00 1014 29.94 843 24.89 16 60.8 29 -2.1 28.2
15:05 1014 29.94 843 24.89 15.7 60.3 31 -1.4 29.5
15:10 1014 29.94 843 24.89 16.1 61 29 -1.8 28.7
15:15 1014 29.94 843 24.89 16.8 62.2 28 -1.6 29.2
15:20 1014 29.94 843 24.89 16.3 61.4 29 -1.7 28.9
15:25 1014 29.94 843 24.89 16 60.8 31 -0.8 30.5
15:30 1014 29.94 843 24.89 15.7 60.3 29 -2 28.5
15:35 1014 29.94 843 24.89 16.3 61.3 28 -2.2 28.1
15:40 1014 29.94 843 24.89 16.3 61.3 27 -2.6 27.4
15:45 1014 29.94 843 24.89 16.4 61.5 27 -2.4 27.6
15:50 1014 29.94 843 24.89 16.7 62 28 -1.7 28.9
15:55 1014 29.94 843 24.89 16.2 61.1 28 -2 28.3
16:00 1014 29.94 843 24.89 16.2 61.1 28 -2.1 28.1
16:05 1014 29.94 843 24.89 16.1 61.1 29 -1.6 29.1
16:10 1014 29.94 843 24.89 15.7 60.3 29 -2.3 27.8
16:15 1014 29.94 843 24.89 16.2 61.1 28 -2.2 28
16:20 1014 29.94 843 24.89 16.7 62.1 27 -2.5 27.6
16:25 1014 29.94 843 24.89 16.9 62.4 27 -2 28.3
16:30 1014 29.94 843 24.89 16.7 62 27 -2.4 27.6
16:35 1014 29.94 843 24.89 16.3 61.3 27 -2.7 27.1
16:40 1014 29.94 843 24.89 16.3 61.3 28 -2.4 27.8
16:45 1014 29.94 843 24.89 16.2 61.2 28 -2.4 27.7
16:50 1014 29.94 843 24.89 16.6 61.9 28 -1.8 28.7
16:55 1014 29.94 843 24.89 16.5 61.6 26 -2.8 27
17:00 1014 29.94 843 24.89 16.4 61.6 26 -2.8 26.9
17:05 1014 29.94 843 24.89 16.3 61.3 26 -3.2 26.3
17:10 1014 29.94 843 24.89 16.4 61.6 25 -3.4 25.9
17:15 1014 29.94 843 24.89 16 60.9 25 -4 24.8
17:20 1014 29.94 843 24.89 15.9 60.6 25 -3.8 25.2
17:25 1014 29.94 843 24.89 16.1 60.9 25 -3.7 25.4
17:30 1014 29.94 843 24.89 16 60.8 26 -3.4 25.9
17:35 1014 29.94 843 24.89 15.9 60.7 27 -2.8 26.9
17:40 1014 29.94 843 24.89 15.9 60.5 27 -3 26.7
17:45 1014 29.94 844 24.92 15.8 60.5 27 -3.1 26.4
17:50 1014 29.94 844 24.92 15.5 59.9 28 -2.9 26.9
17:55 1014 29.94 844 24.92 15.5 59.9 28 -2.9 26.8
18:00 1014 29.94 844 24.92 15.7 60.2 27 -3 26.7
18:05 1014 29.94 844 24.92 16 60.8 29 -2.2 28.1
18:10 1014 29.94 844 24.92 15.3 59.6 30 -2 28.4
18:15 1014 29.94 844 24.92 14.6 58.3 32 -1.8 28.7
18:20 1015 29.97 844 24.92 14.4 58 32 -2.1 28.2
18:25 1015 29.97 844 24.92 14.5 58 32 -2 28.4
18:30 1015 29.97 844 24.92 14.6 58.2 33 -1.5 29.2
18:35 1015 29.97 844 24.92 14.4 57.9 33 -1.5 29.3
18:40 1015 29.97 844 24.92 14.3 57.7 33 -1.6 29.1
18:45 1015 29.97 844 24.92 14.2 57.5 34 -1.4 29.4
18:50 1015 29.97 844 24.92 14.1 57.4 34 -1.3 29.6
18:55 1015 29.97 844 24.92 14 57.3 35 -1 30.3
19:00 1015 29.97 844 24.92 14 57.2 32 -2.2 28.1
19:05 1015 29.97 844 24.92 13.9 57.1 34 -1.8 28.8
19:10 1015 29.97 844 24.92 13.8 56.8 36 -1.1 30
19:15 1015 29.97 844 24.92 13.5 56.3 36 -1 30.1
19:20 1015 29.97 844 24.92 13.3 56 37 -0.9 30.3
19:25 1015 29.97 845 24.95 13.2 55.7 39 -0.5 31.1
19:30 1015 29.97 845 24.95 13 55.4 39 -0.7 30.7
19:35 1016 30 845 24.95 13 55.4 39 -0.5 31.1
19:40 1016 30 845 24.95 13 55.3 41 0 32.1
19:45 1016 30 845 24.95 12.7 54.9 45 1 33.8
19:50 1016 30 845 24.95 12 53.6 47 1.2 34.2
19:55 1016 30 845 24.95 11.6 53 48 1 33.8
20:00 1016 30 845 24.95 11.4 52.5 46 0.2 32.3
20:05 1016 30 845 24.95 11.4 52.5 44 -0.3 31.5
20:10 1016 30 845 24.95 11.5 52.6 45 0.1 32.1
20:15 1016 30 845 24.95 11.4 52.5 46 0.2 32.3
20:20 1016 30 845 24.95 11.2 52.1 48 0.6 33
20:25 1016 30 845 24.95 10.5 50.9 54 1.6 34.9
20:30 1016 30 845 24.95 10 50.1 56 1.6 34.9
20:35 1016 30 845 24.95 9.9 49.8 56 1.6 34.8
20:40 1016 30 845 24.95 9.6 49.3 57 1.5 34.6
20:45 1016 30 846 24.98 9.6 49.4 57 1.6 34.8
20:50 1016 30 846 24.98 9.7 49.4 55 1.2 34.2
20:55 1016 30 846 24.98 9.6 49.3 57 1.4 34.6
21:00 1016 30 846 24.98 9.4 49 57 1.3 34.4
21:05 1017 30.03 846 24.98 9.4 48.9 56 1.2 34.1
21:10 1017 30.03 846 24.98 9.3 48.8 56 1.1 34.1
21:15 1017 30.03 846 24.98 9.3 48.8 56 1.1 34
21:20 1017 30.03 846 24.98 9.3 48.7 57 1.1 34.1
21:25 1017 30.03 846 24.98 9.2 48.5 57 1.1 34
21:30 1017 30.03 846 24.98 9.2 48.5 57 1.1 34
21:35 1017 30.03 846 24.98 9.1 48.4 57 1.1 34
21:40 1017 30.03 846 24.98 9.1 48.4 56 0.7 33.3
21:45 1017 30.03 846 24.98 9.1 48.5 56 0.9 33.6
21:50 1017 30.03 846 24.98 9.2 48.6 54 0.5 32.9
21:55 1017 30.03 846 24.98 9.3 48.8 55 0.8 33.5
22:00 1017 30.03 846 24.98 9 48.3 57 0.9 33.7
22:05 1017 30.03 846 24.98 8.8 47.9 57 0.7 33.3
22:10 1017 30.03 846 24.98 8.8 47.8 56 0.5 32.9
22:15 1017 30.03 846 24.98 8.8 47.8 57 0.7 33.3
22:20 1017 30.03 846 24.98 8.6 47.5 58 0.8 33.5
22:25 1017 30.03 846 24.98 8.5 47.2 59 1 33.9
22:30 1017 30.03 846 24.98 8.3 47 60 1.1 34
22:35 1017 30.03 846 24.98 8.3 47 58 0.6 33.2
22:40 1017 30.03 846 24.98 8.5 47.4 57 0.6 33.1
22:45 1017 30.03 846 24.98 8.4 47.2 58 0.8 33.4
22:50 1017 30.03 846 24.98 8.3 47 58 0.5 32.8
22:55 1017 30.03 846 24.98 8.5 47.2 58 0.8 33.5
23:00 1017 30.03 846 24.98 8.4 47.1 59 0.8 33.5
23:05 1017 30.03 846 24.98 8.4 47.1 60 1 33.8
23:10 1017 30.03 846 24.98 8.2 46.7 59 0.8 33.4
23:15 1017 30.03 847 25.01 8.3 46.9 60 0.9 33.6
23:20 1017 30.03 847 25.01 8.3 46.9 59 0.9 33.6
23:25 1017 30.03 846 24.98 8.3 46.9 60 1 33.9
23:30 1017 30.03 846 24.98 8.5 47.3 60 1.1 34.1
23:35 1017 30.03 846 24.98 8.5 47.3 60 1.3 34.3
23:40 1017 30.03 846 24.98 8.5 47.2 61 1.5 34.6
23:45 1017 30.03 846 24.98 8.5 47.4 61 1.6 34.9
23:50 1017 30.03 846 24.98 8.5 47.3 60 1.3 34.3
23:55 1017 30.03 846 24.98 8.7 47.6 59 1.2 34.2
24:00 1017 30.03 846 24.98 8.7 47.7 60 1.3 34.4